Time;durP1;ratioP1;P1;durP2;ratioP2;P2;SDS_P1;SDS_P2;PMS_P1;PMS_P2;Temp;Humidity;BMP_temperature;BMP_pressure;BME280_temperature;BME280_humidity;BME280_pressure;Samples;Min_cycle;Max_cycle;Signal;HPM_P1;HPM_P2
2023/01/23 00:01:14;;;;;;;17.92;4.15;;;2.80;99.90;;;;;;5014004;28;20140;-73
2023/01/23 00:03:39;;;;;;;13.27;4.20;;;2.80;99.90;;;;;;5015572;28;20056;-72
2023/01/23 00:06:11;;;;;;;7.75;4.20;;;2.80;99.90;;;;;;5013591;28;20034;-72
2023/01/23 00:08:37;;;;;;;7.65;3.58;;;2.80;99.90;;;;;;5012712;28;20467;-72
2023/01/23 00:11:05;;;;;;;11.27;4.40;;;2.80;99.90;;;;;;5011796;28;20037;-73
2023/01/23 00:13:30;;;;;;;11.68;4.15;;;2.80;99.90;;;;;;5006291;28;20177;-72
2023/01/23 00:15:56;;;;;;;9.82;3.97;;;2.80;99.90;;;;;;5010488;28;20556;-73
2023/01/23 00:18:22;;;;;;;7.82;4.07;;;2.70;99.90;;;;;;5009713;28;20096;-72
2023/01/23 00:20:47;;;;;;;8.68;3.75;;;2.70;99.90;;;;;;5013232;28;20861;-71
2023/01/23 00:23:13;;;;;;;10.25;4.18;;;2.70;99.90;;;;;;5013411;28;20076;-74
2023/01/23 00:25:40;;;;;;;12.20;4.53;;;2.70;99.90;;;;;;5011498;28;20113;-72
2023/01/23 00:28:05;;;;;;;11.32;5.00;;;2.70;99.90;;;;;;5003691;28;20038;-72
2023/01/23 00:30:32;;;;;;;12.45;4.55;;;2.70;99.90;;;;;;5010640;28;20037;-72
2023/01/23 00:32:57;;;;;;;11.68;4.80;;;2.70;99.90;;;;;;5011290;28;20474;-72
2023/01/23 00:35:23;;;;;;;10.13;4.00;;;2.70;99.90;;;;;;5011340;28;20068;-74
2023/01/23 00:37:49;;;;;;;10.73;3.78;;;2.80;99.90;;;;;;5013130;28;20041;-71
2023/01/23 00:40:14;;;;;;;11.57;4.43;;;2.80;99.90;;;;;;5013433;28;20062;-72
2023/01/23 00:42:40;;;;;;;16.33;5.00;;;2.80;99.90;;;;;;5011595;28;20104;-73
2023/01/23 00:45:06;;;;;;;14.07;4.55;;;2.80;99.90;;;;;;5011563;28;20030;-72
2023/01/23 00:47:32;;;;;;;11.82;3.42;;;2.80;99.90;;;;;;5012834;28;20200;-73
2023/01/23 00:49:59;;;;;;;9.77;4.60;;;2.80;99.90;;;;;;5013131;28;20053;-72
2023/01/23 00:52:26;;;;;;;11.77;4.07;;;2.80;99.90;;;;;;5013540;28;20041;-72
2023/01/23 00:54:51;;;;;;;8.52;4.28;;;2.80;99.90;;;;;;5011879;28;20122;-73
2023/01/23 00:57:17;;;;;;;11.40;3.97;;;2.80;99.90;;;;;;5010442;28;20073;-72
2023/01/23 00:59:43;;;;;;;12.65;4.55;;;2.80;99.90;;;;;;5007666;28;20037;-72
2023/01/23 01:02:08;;;;;;;11.43;4.15;;;2.80;99.90;;;;;;5012038;28;20519;-72
2023/01/23 01:04:34;;;;;;;14.23;4.25;;;2.70;99.90;;;;;;5011546;28;20034;-72
2023/01/23 01:07:00;;;;;;;14.75;4.38;;;2.80;99.90;;;;;;5012530;28;20125;-72
2023/01/23 01:09:25;;;;;;;10.98;4.20;;;2.70;99.90;;;;;;5013624;28;20038;-72
2023/01/23 01:11:51;;;;;;;12.70;3.90;;;2.80;99.90;;;;;;5012571;28;20348;-72
2023/01/23 01:14:17;;;;;;;9.85;4.38;;;2.70;99.90;;;;;;5013168;28;20406;-72
2023/01/23 01:16:45;;;;;;;10.02;4.40;;;2.80;99.90;;;;;;5012272;28;20094;-72
2023/01/23 01:19:12;;;;;;;8.90;4.72;;;2.70;99.90;;;;;;5015574;28;20121;-73
2023/01/23 01:21:39;;;;;;;14.95;4.90;;;2.70;99.90;;;;;;5012045;28;20491;-71
2023/01/23 01:24:05;;;;;;;13.40;5.28;;;2.70;99.90;;;;;;5012126;28;20041;-72
2023/01/23 01:26:30;;;;;;;9.50;4.72;;;2.70;99.90;;;;;;5020706;28;20401;-72
2023/01/23 01:28:56;;;;;;;11.98;4.78;;;2.70;99.90;;;;;;5011787;28;20064;-73
2023/01/23 01:31:22;;;;;;;9.50;4.35;;;2.70;99.90;;;;;;5012329;28;20022;-72
2023/01/23 01:33:49;;;;;;;15.88;5.30;;;2.60;99.90;;;;;;5010411;28;20129;-72
2023/01/23 01:36:17;;;;;;;9.82;5.13;;;2.70;99.90;;;;;;5012012;28;20037;-71
2023/01/23 01:38:43;;;;;;;15.80;6.28;;;2.70;99.90;;;;;;5011797;28;20045;-73
2023/01/23 01:41:10;;;;;;;18.40;5.63;;;2.60;99.90;;;;;;5009072;28;20038;-72
2023/01/23 01:43:35;;;;;;;10.82;5.28;;;2.60;99.90;;;;;;5008927;28;20040;-73
2023/01/23 01:46:18;;;;;;;13.88;5.20;;;2.60;99.90;;;;;;5009315;28;20129;-72
2023/01/23 01:49:11;;;;;;;11.88;5.47;;;2.60;99.90;;;;;;5009665;28;20131;-72
2023/01/23 01:51:37;;;;;;;10.52;4.57;;;2.60;99.90;;;;;;5009148;28;20041;-72
2023/01/23 01:54:30;;;;;;;10.25;4.68;;;2.70;99.90;;;;;;5008309;28;20034;-72
2023/01/23 01:57:10;;;;;;;15.80;5.00;;;2.70;99.90;;;;;;5008048;28;20085;-72
2023/01/23 01:59:44;;;;;;;13.05;6.10;;;2.70;99.90;;;;;;5011469;28;20510;-72
2023/01/23 02:02:33;;;;;;;9.77;4.80;;;2.70;99.90;;;;;;5011675;28;20494;-73
2023/01/23 02:05:03;;;;;;;12.30;5.60;;;2.60;99.90;;;;;;5001693;28;20041;-72
2023/01/23 02:07:43;;;;;;;15.82;4.05;;;2.70;99.90;;;;;;5011290;28;20133;-72
2023/01/23 02:10:10;;;;;;;17.38;5.97;;;2.60;99.90;;;;;;5011632;28;20037;-72
2023/01/23 02:12:37;;;;;;;13.15;5.43;;;2.60;99.90;;;;;;5010866;28;20057;-74
2023/01/23 02:15:05;;;;;;;13.23;5.40;;;2.70;99.90;;;;;;5007103;28;20486;-72
2023/01/23 02:17:32;;;;;;;12.43;4.88;;;2.70;99.90;;;;;;5010937;28;20887;-72
2023/01/23 02:20:19;;;;;;;16.33;5.68;;;2.60;99.90;;;;;;5010338;28;20045;-73
2023/01/23 02:23:04;;;;;;;10.82;4.53;;;2.60;99.90;;;;;;5009923;28;20033;-72
2023/01/23 02:25:52;;;;;;;11.88;5.50;;;2.60;99.90;;;;;;5007533;28;20038;-73
2023/01/23 02:28:17;;;;;;;13.13;5.55;;;2.70;99.90;;;;;;5025680;28;20053;-71
2023/01/23 02:30:49;;;;;;;12.55;5.07;;;2.60;99.90;;;;;;5009634;28;20101;-72
2023/01/23 02:33:23;;;;;;;11.05;4.25;;;2.70;99.90;;;;;;5006524;28;20458;-72
2023/01/23 02:35:49;;;;;;;13.32;4.35;;;2.70;99.90;;;;;;5004440;28;20388;-72
2023/01/23 02:38:19;;;;;;;16.88;5.97;;;2.70;99.90;;;;;;5012195;28;20168;-73
2023/01/23 02:40:45;;;;;;;9.13;4.57;;;2.70;99.90;;;;;;5011107;28;20129;-72
2023/01/23 02:43:17;;;;;;;11.18;4.70;;;2.70;99.90;;;;;;5010105;28;20438;-72
2023/01/23 02:45:44;;;;;;;12.00;4.85;;;2.60;99.90;;;;;;5010994;28;20061;-73
2023/01/23 02:48:10;;;;;;;13.13;4.68;;;2.60;99.90;;;;;;5011243;28;20121;-73
2023/01/23 02:50:35;;;;;;;13.43;5.10;;;2.60;99.90;;;;;;5011102;28;20053;-73
2023/01/23 02:53:01;;;;;;;13.32;5.55;;;2.70;99.90;;;;;;5009980;28;20042;-73
2023/01/23 02:55:30;;;;;;;10.50;4.80;;;2.60;99.90;;;;;;5009680;28;20045;-72
2023/01/23 03:00:14;;;;;;;13.98;5.18;;;2.60;99.90;;;;;;5010468;28;20038;-73
2023/01/23 03:00:46;;;;;;;14.05;5.38;;;2.60;99.90;;;;;;5011836;28;20457;-72
2023/01/23 03:03:12;;;;;;;10.63;4.90;;;2.70;99.90;;;;;;5012076;28;20042;-72
2023/01/23 03:05:38;;;;;;;16.65;5.55;;;2.70;99.90;;;;;;5034563;28;20076;-72
2023/01/23 03:08:04;;;;;;;12.52;4.47;;;2.70;99.90;;;;;;5007801;28;20026;-72
2023/01/23 03:10:29;;;;;;;11.48;4.43;;;2.70;99.90;;;;;;5007803;28;20092;-74
2023/01/23 03:13:00;;;;;;;11.32;4.93;;;2.70;99.90;;;;;;5008835;28;20030;-72
2023/01/23 03:15:26;;;;;;;14.55;5.40;;;2.80;99.90;;;;;;5011012;28;20052;-72
2023/01/23 03:17:53;;;;;;;10.57;4.75;;;2.70;99.90;;;;;;5013973;28;20036;-71
2023/01/23 03:20:21;;;;;;;13.50;5.80;;;2.70;99.90;;;;;;5011183;28;20470;-70
2023/01/23 03:22:46;;;;;;;14.80;5.28;;;2.80;99.90;;;;;;5009416;28;20463;-72
2023/01/23 03:25:12;;;;;;;12.75;5.22;;;2.70;99.90;;;;;;5012522;28;20034;-72
2023/01/23 03:27:38;;;;;;;19.08;5.40;;;2.80;99.90;;;;;;5017890;28;20111;-72
2023/01/23 03:30:13;;;;;;;13.82;5.40;;;2.80;99.90;;;;;;5013676;28;20041;-71
2023/01/23 03:32:42;;;;;;;16.33;5.65;;;2.80;99.90;;;;;;5011546;28;20094;-73
2023/01/23 03:35:12;;;;;;;22.42;6.60;;;2.80;99.90;;;;;;5011264;28;20438;-73
2023/01/23 03:37:38;;;;;;;15.88;5.93;;;2.80;99.90;;;;;;5007278;28;20134;-72
2023/01/23 03:42:48;;;;;;;11.98;5.25;;;2.70;99.90;;;;;;5012383;28;20422;-72
2023/01/23 03:45:14;;;;;;;10.23;4.60;;;2.70;99.90;;;;;;5013607;28;20026;-72
2023/01/23 03:47:39;;;;;;;11.82;5.30;;;2.70;99.90;;;;;;5015424;28;20122;-73
2023/01/23 03:50:06;;;;;;;15.13;5.93;;;2.70;99.90;;;;;;5015025;28;20105;-71
2023/01/23 03:52:32;;;;;;;17.35;5.47;;;2.70;99.90;;;;;;5012857;28;20423;-72
2023/01/23 03:54:57;;;;;;;14.80;6.13;;;2.80;99.90;;;;;;5013369;28;20041;-72
2023/01/23 03:57:23;;;;;;;17.15;6.00;;;2.80;99.90;;;;;;5014167;28;20052;-72
2023/01/23 03:59:49;;;;;;;16.25;5.50;;;2.80;99.90;;;;;;5014419;28;20050;-72
2023/01/23 04:02:14;;;;;;;13.73;5.82;;;2.70;99.90;;;;;;5013174;28;20046;-75
2023/01/23 04:04:40;;;;;;;12.57;5.22;;;2.70;99.90;;;;;;5012412;28;20034;-72
2023/01/23 04:07:06;;;;;;;16.27;5.03;;;2.80;99.90;;;;;;5003565;28;20129;-73
2023/01/23 04:09:31;;;;;;;17.58;5.30;;;2.70;99.90;;;;;;5013212;28;20401;-73
2023/01/23 04:11:58;;;;;;;11.35;4.72;;;2.80;99.90;;;;;;5014366;28;20477;-72
2023/01/23 04:14:25;;;;;;;13.90;5.13;;;2.80;99.90;;;;;;5012493;28;20042;-74
2023/01/23 04:16:52;;;;;;;12.20;4.70;;;2.80;99.90;;;;;;5014308;28;20124;-72
2023/01/23 04:19:18;;;;;;;12.05;4.80;;;2.80;99.90;;;;;;5013807;28;20050;-72
2023/01/23 04:21:45;;;;;;;17.38;5.78;;;2.80;99.90;;;;;;5013427;28;20037;-72
2023/01/23 04:24:11;;;;;;;10.90;4.75;;;2.80;99.90;;;;;;5013008;28;20037;-73
2023/01/23 04:26:37;;;;;;;11.85;5.93;;;2.80;99.90;;;;;;5012883;28;20042;-71
2023/01/23 04:29:03;;;;;;;16.00;5.57;;;2.80;99.90;;;;;;5011079;28;20510;-72
2023/01/23 04:31:29;;;;;;;11.23;5.10;;;2.80;99.90;;;;;;5011118;28;20030;-73
2023/01/23 04:33:55;;;;;;;13.85;5.35;;;2.70;99.90;;;;;;5012707;28;20106;-72
2023/01/23 04:36:20;;;;;;;15.40;5.18;;;2.80;99.90;;;;;;5013025;28;20045;-73
2023/01/23 04:38:46;;;;;;;21.02;5.97;;;2.70;99.90;;;;;;5013391;28;20030;-73
2023/01/23 04:41:24;;;;;;;16.58;5.90;;;2.70;99.90;;;;;;5014135;28;20030;-73
2023/01/23 04:43:50;;;;;;;14.02;6.35;;;2.70;99.90;;;;;;5013261;28;20150;-71
2023/01/23 04:46:15;;;;;;;17.40;5.97;;;2.70;99.90;;;;;;5014058;28;20049;-72
2023/01/23 04:48:41;;;;;;;16.50;5.70;;;2.70;99.90;;;;;;5014080;28;20481;-73
2023/01/23 04:51:07;;;;;;;21.70;7.40;;;2.70;99.90;;;;;;5013892;28;20033;-73
2023/01/23 04:53:32;;;;;;;14.50;6.15;;;2.70;99.90;;;;;;5013194;28;20038;-72
2023/01/23 04:55:58;;;;;;;15.98;6.13;;;2.70;99.90;;;;;;5013811;28;20057;-72
2023/01/23 04:58:24;;;;;;;17.98;6.35;;;2.80;99.90;;;;;;5013704;28;20034;-72
2023/01/23 05:00:49;;;;;;;13.05;5.82;;;2.70;99.90;;;;;;5011055;28;20053;-73
2023/01/23 05:03:15;;;;;;;15.40;6.05;;;2.70;99.90;;;;;;5009345;28;20042;-73
2023/01/23 05:05:42;;;;;;;17.05;6.70;;;2.80;99.90;;;;;;5009787;28;20056;-73
2023/01/23 05:08:09;;;;;;;14.02;5.70;;;2.80;99.90;;;;;;5012553;28;20122;-72
2023/01/23 05:10:35;;;;;;;18.65;5.97;;;2.80;99.90;;;;;;5012365;28;20042;-73
2023/01/23 05:13:01;;;;;;;16.40;6.72;;;2.80;99.90;;;;;;5014370;28;20098;-73
2023/01/23 05:15:27;;;;;;;17.05;6.18;;;2.80;99.90;;;;;;5014135;28;20046;-73
2023/01/23 05:17:53;;;;;;;14.68;6.72;;;2.80;99.90;;;;;;5012060;28;20127;-73
2023/01/23 05:20:19;;;;;;;14.07;6.47;;;2.80;99.90;;;;;;5012923;28;20042;-72
2023/01/23 05:22:53;;;;;;;16.17;6.55;;;2.80;99.90;;;;;;5016951;28;20037;-72
2023/01/23 05:25:21;;;;;;;43.60;7.70;;;2.80;99.90;;;;;;5006427;28;20418;-72
2023/01/23 05:27:47;;;;;;;21.20;7.60;;;2.90;99.90;;;;;;5025892;28;20099;-73
2023/01/23 05:30:12;;;;;;;16.42;6.80;;;2.90;99.90;;;;;;5007263;28;20038;-72
2023/01/23 05:32:38;;;;;;;20.08;6.75;;;2.90;99.90;;;;;;5009766;28;20045;-74
2023/01/23 05:35:04;;;;;;;19.70;7.03;;;2.90;99.90;;;;;;5007907;28;20030;-73
2023/01/23 05:37:29;;;;;;;19.95;6.22;;;2.90;99.90;;;;;;5009482;28;20537;-76
2023/01/23 05:39:55;;;;;;;17.10;6.80;;;2.90;99.90;;;;;;5010251;28;20542;-72
2023/01/23 05:42:21;;;;;;;14.00;6.55;;;2.90;99.90;;;;;;5003749;28;20042;-73
2023/01/23 05:44:46;;;;;;;14.85;6.43;;;2.90;99.90;;;;;;5007800;28;20034;-73
2023/01/23 05:47:12;;;;;;;17.42;6.97;;;2.90;99.90;;;;;;5003985;28;20119;-72
2023/01/23 05:49:37;;;;;;;14.98;6.43;;;2.90;99.90;;;;;;5002923;28;20050;-72
2023/01/23 05:52:03;;;;;;;13.93;6.43;;;2.90;99.90;;;;;;5009904;28;20041;-72
2023/01/23 05:54:28;;;;;;;18.95;6.90;;;3.00;99.90;;;;;;5010876;28;20038;-74
2023/01/23 05:56:54;;;;;;;16.27;6.97;;;3.00;99.90;;;;;;5010439;28;20034;-72
2023/01/23 05:59:20;;;;;;;13.85;6.10;;;2.90;99.90;;;;;;5011421;28;20053;-72
2023/01/23 06:01:45;;;;;;;13.65;6.70;;;2.90;99.90;;;;;;5009195;28;20053;-72
2023/01/23 06:04:14;;;;;;;13.93;5.57;;;2.90;99.90;;;;;;5000152;28;20025;-74
2023/01/23 06:06:41;;;;;;;19.35;5.97;;;2.90;99.90;;;;;;5009684;28;20050;-72
2023/01/23 06:09:06;;;;;;;14.82;5.70;;;2.90;99.90;;;;;;5009949;28;20141;-73
2023/01/23 06:11:34;;;;;;;15.82;5.70;;;2.90;99.90;;;;;;5009933;28;20516;-74
2023/01/23 06:14:00;;;;;;;16.13;6.35;;;3.00;99.90;;;;;;5001772;28;20041;-72
2023/01/23 06:16:26;;;;;;;18.08;5.93;;;3.00;99.90;;;;;;5001126;28;20042;-73
2023/01/23 06:18:51;;;;;;;13.43;5.80;;;3.00;99.90;;;;;;5000689;28;20196;-72
2023/01/23 06:21:17;;;;;;;18.80;5.95;;;3.00;99.90;;;;;;5006097;28;20034;-72
2023/01/23 06:23:44;;;;;;;12.10;6.13;;;3.00;99.90;;;;;;5014624;28;20034;-72
2023/01/23 06:26:11;;;;;;;17.63;6.50;;;3.00;99.90;;;;;;5002583;28;20509;-73
2023/01/23 06:28:36;;;;;;;22.40;6.65;;;3.00;99.90;;;;;;4998542;28;20045;-73
2023/01/23 06:31:03;;;;;;;28.35;6.55;;;3.00;99.90;;;;;;5005356;28;20033;-72
2023/01/23 06:33:29;;;;;;;16.80;5.85;;;3.00;99.90;;;;;;4997875;28;20053;-72
2023/01/23 06:36:00;;;;;;;14.48;5.68;;;3.00;99.90;;;;;;5004156;28;20117;-73
2023/01/23 06:38:26;;;;;;;;;;;3.00;99.90;;;;;;5003864;28;20038;-73
2023/01/23 06:40:52;;;;;;;18.02;6.35;;;2.90;99.90;;;;;;4996492;28;20072;-72
2023/01/23 06:43:18;;;;;;;18.15;6.50;;;2.90;99.90;;;;;;4994859;28;20555;-74
2023/01/23 06:45:45;;;;;;;16.05;7.45;;;2.90;99.90;;;;;;5004922;28;20029;-73
2023/01/23 06:48:10;;;;;;;17.80;6.97;;;2.90;99.90;;;;;;5007534;28;20049;-72
2023/01/23 06:50:37;;;;;;;16.23;6.53;;;2.90;99.90;;;;;;5008685;28;20034;-73
2023/01/23 06:53:04;;;;;;;13.57;6.40;;;2.90;99.90;;;;;;5007490;28;20045;-72
2023/01/23 06:55:30;;;;;;;14.85;6.45;;;2.90;99.90;;;;;;5007698;28;20747;-72
2023/01/23 06:57:55;;;;;;;20.17;6.47;;;2.90;99.90;;;;;;5006780;28;20116;-73
2023/01/23 07:00:21;;;;;;;25.65;6.97;;;2.90;99.90;;;;;;5005967;28;20435;-73
2023/01/23 07:02:47;;;;;;;16.40;6.05;;;2.90;99.90;;;;;;5002228;28;20185;-72
2023/01/23 07:05:13;;;;;;;18.75;6.10;;;2.90;99.90;;;;;;4998493;28;20037;-73
2023/01/23 07:07:38;;;;;;;18.20;6.35;;;3.00;99.90;;;;;;5008375;28;20118;-72
2023/01/23 07:10:04;;;;;;;19.50;7.78;;;2.90;99.90;;;;;;5004332;28;20034;-71
2023/01/23 07:12:30;;;;;;;16.02;6.53;;;2.90;99.90;;;;;;4995256;28;20042;-72
2023/01/23 07:14:55;;;;;;;15.57;6.60;;;2.90;99.90;;;;;;5004586;28;20448;-71
2023/01/23 07:17:21;;;;;;;18.30;5.90;;;2.90;99.90;;;;;;5006326;28;20482;-74
2023/01/23 07:19:47;;;;;;;14.20;6.85;;;2.90;99.90;;;;;;5007739;28;20041;-74
2023/01/23 07:22:19;;;;;;;22.38;7.55;;;2.90;99.90;;;;;;5006327;28;20038;-74
2023/01/23 07:24:45;;;;;;;16.30;6.00;;;2.90;99.90;;;;;;5004698;28;20039;-74
2023/01/23 07:27:10;;;;;;;20.88;6.60;;;2.90;99.90;;;;;;5002284;28;20034;-73
2023/01/23 07:29:36;;;;;;;19.27;7.65;;;2.90;99.90;;;;;;4999616;28;20121;-74
2023/01/23 07:32:02;;;;;;;18.63;7.30;;;2.90;99.90;;;;;;4999804;28;20095;-73
2023/01/23 07:34:27;;;;;;;15.55;6.63;;;2.90;99.90;;;;;;4999631;28;20775;-74
2023/01/23 07:36:53;;;;;;;17.45;7.82;;;2.90;99.90;;;;;;5010876;28;20038;-72
2023/01/23 07:39:18;;;;;;;17.23;6.85;;;2.90;99.90;;;;;;5001064;28;20854;-73
2023/01/23 07:41:44;;;;;;;18.65;7.57;;;2.90;99.90;;;;;;5006779;28;20048;-73
2023/01/23 07:44:16;;;;;;;15.73;6.72;;;2.90;99.90;;;;;;4998980;28;20038;-72
2023/01/23 07:46:43;;;;;;;22.73;8.52;;;3.00;99.90;;;;;;5002873;28;20037;-73
2023/01/23 07:49:08;;;;;;;16.88;7.13;;;3.00;99.90;;;;;;5004966;28;20034;-73
2023/01/23 07:51:34;;;;;;;16.42;7.47;;;3.10;99.90;;;;;;5018124;28;20474;-73
2023/01/23 07:54:00;;;;;;;14.68;7.57;;;3.00;99.90;;;;;;4996684;28;20033;-73
2023/01/23 07:56:26;;;;;;;14.30;7.55;;;3.00;99.90;;;;;;5001734;28;20045;-72
2023/01/23 07:58:51;;;;;;;21.52;6.80;;;3.00;99.90;;;;;;5018142;28;20195;-72
2023/01/23 08:01:18;;;;;;;16.63;7.20;;;3.00;99.90;;;;;;5019040;28;20045;-72
2023/01/23 08:03:44;;;;;;;16.50;6.72;;;3.00;99.90;;;;;;4995754;28;20030;-73
2023/01/23 08:06:10;;;;;;;19.85;8.00;;;3.00;99.90;;;;;;5001387;28;21673;-72
2023/01/23 08:08:36;;;;;;;16.45;7.72;;;3.00;99.90;;;;;;4998667;28;20039;-72
2023/01/23 08:11:06;;;;;;;17.02;6.70;;;3.10;99.90;;;;;;5004780;28;20426;-72
2023/01/23 08:13:32;;;;;;;19.50;8.55;;;3.10;99.90;;;;;;5000545;28;20110;-73
2023/01/23 08:15:58;;;;;;;19.15;8.48;;;3.10;99.90;;;;;;5006250;28;20050;-73
2023/01/23 08:18:24;;;;;;;16.13;7.90;;;3.20;99.90;;;;;;4998023;28;20038;-73
2023/01/23 08:20:54;;;;;;;21.33;8.40;;;3.20;99.90;;;;;;4997948;28;20116;-76
2023/01/23 08:23:23;;;;;;;21.40;8.43;;;3.20;99.90;;;;;;5002138;28;20498;-73
2023/01/23 08:25:52;;;;;;;20.35;7.70;;;3.20;99.90;;;;;;5012995;28;20134;-74
2023/01/23 08:28:18;;;;;;;21.20;10.00;;;3.30;99.90;;;;;;5001677;28;20037;-73
2023/01/23 08:30:43;;;;;;;18.20;8.43;;;3.30;99.90;;;;;;5004344;28;20050;-72
2023/01/23 08:33:09;;;;;;;16.40;6.20;;;3.30;99.90;;;;;;5018768;28;20117;-71
2023/01/23 08:35:34;;;;;;;18.70;6.80;;;3.30;99.90;;;;;;5023996;28;20092;-74
2023/01/23 08:38:01;;;;;;;17.42;7.43;;;3.30;99.90;;;;;;5004807;28;20048;-74
2023/01/23 08:40:27;;;;;;;15.77;7.50;;;3.30;99.90;;;;;;5004376;28;20386;-74
2023/01/23 08:42:52;;;;;;;19.35;6.97;;;3.30;99.90;;;;;;5004058;28;20045;-72
2023/01/23 08:45:18;;;;;;;15.45;6.18;;;3.30;99.90;;;;;;5003956;28;20061;-72
2023/01/23 08:47:43;;;;;;;19.58;7.20;;;3.30;99.90;;;;;;5017014;28;20457;-73
2023/01/23 08:50:10;;;;;;;22.67;6.93;;;3.40;99.90;;;;;;5004618;28;20038;-73
2023/01/23 08:52:35;;;;;;;20.00;7.75;;;3.40;99.90;;;;;;4999722;28;20406;-74
2023/01/23 08:55:01;;;;;;;20.63;8.35;;;3.40;99.90;;;;;;5002368;28;20030;-73
2023/01/23 08:57:27;;;;;;;21.02;7.10;;;3.40;99.90;;;;;;5005019;28;20054;-74
2023/01/23 08:59:52;;;;;;;14.05;5.53;;;3.50;99.90;;;;;;4998188;28;20054;-72
2023/01/23 09:02:18;;;;;;;15.32;6.35;;;3.50;99.90;;;;;;5004427;28;20035;-73
2023/01/23 09:04:43;;;;;;;14.25;6.10;;;3.50;99.90;;;;;;5003410;28;20498;-72
2023/01/23 09:07:09;;;;;;;21.48;6.55;;;3.50;99.90;;;;;;5004071;28;20088;-73
2023/01/23 09:09:35;;;;;;;16.23;6.47;;;3.60;99.90;;;;;;4998584;28;20560;-74
2023/01/23 09:12:00;;;;;;;13.43;6.30;;;3.60;99.90;;;;;;4994353;28;20026;-73
2023/01/23 09:14:26;;;;;;;17.27;6.85;;;3.60;99.90;;;;;;4998891;28;20049;-73
2023/01/23 09:16:51;;;;;;;12.27;6.28;;;3.70;99.90;;;;;;5002741;28;20521;-72
2023/01/23 09:19:17;;;;;;;14.60;6.50;;;3.70;99.90;;;;;;5003455;28;20054;-73
2023/01/23 09:21:43;;;;;;;14.35;6.55;;;3.60;99.90;;;;;;5004008;28;20566;-73
2023/01/23 09:24:08;;;;;;;13.40;5.88;;;3.60;99.90;;;;;;5003185;28;20037;-73
2023/01/23 09:26:34;;;;;;;19.65;7.88;;;3.70;99.90;;;;;;5003263;28;20030;-73
2023/01/23 09:29:00;;;;;;;16.33;5.93;;;3.60;99.90;;;;;;5002897;28;20025;-73
2023/01/23 09:31:26;;;;;;;22.30;6.45;;;3.60;99.90;;;;;;4999245;28;20071;-73
2023/01/23 09:33:51;;;;;;;19.38;6.65;;;3.70;99.90;;;;;;5002801;28;20372;-72
2023/01/23 09:36:17;;;;;;;13.90;5.93;;;3.70;99.90;;;;;;5007648;28;20046;-72
2023/01/23 09:38:42;;;;;;;16.02;6.30;;;3.70;99.90;;;;;;5007391;28;20069;-72
2023/01/23 09:41:25;;;;;;;20.45;7.07;;;3.70;99.90;;;;;;5006176;28;20061;-73
2023/01/23 09:44:01;;;;;;;19.73;7.95;;;3.80;99.90;;;;;;5003142;28;20045;-73
2023/01/23 09:47:01;;;;;;;16.85;7.00;;;3.90;99.90;;;;;;5008283;28;20045;-72
2023/01/23 09:49:36;;;;;;;14.77;6.63;;;3.90;99.90;;;;;;4999100;28;20478;-73
2023/01/23 09:52:12;;;;;;;22.90;7.80;;;4.00;99.90;;;;;;5001805;28;20045;-73
2023/01/23 09:55:03;;;;;;;15.25;6.15;;;4.00;99.90;;;;;;5005982;28;20092;-74
2023/01/23 09:57:42;;;;;;;17.08;7.75;;;4.10;99.90;;;;;;4998047;28;20060;-71
2023/01/23 10:00:29;;;;;;;15.68;6.20;;;4.10;99.90;;;;;;5006113;28;20030;-71
2023/01/23 10:02:55;;;;;;;17.83;6.28;;;4.20;99.90;;;;;;5002086;28;20054;-72
2023/01/23 10:05:41;;;;;;;16.05;5.82;;;4.20;99.90;;;;;;5002197;28;20038;-73
2023/01/23 10:08:37;;;;;;;19.30;6.93;;;4.30;99.90;;;;;;5002448;28;20069;-75
2023/01/23 10:11:09;;;;;;;14.75;5.93;;;4.30;99.90;;;;;;5007860;28;20042;-73
2023/01/23 10:14:03;;;;;;;16.55;6.75;;;4.30;99.90;;;;;;5003692;28;20072;-72
2023/01/23 10:16:56;;;;;;;14.75;6.70;;;4.30;99.90;;;;;;5003044;28;20041;-72
2023/01/23 10:19:45;;;;;;;12.57;5.93;;;4.30;99.90;;;;;;4992374;28;20037;-72
2023/01/23 10:22:40;;;;;;;15.43;6.88;;;4.30;99.90;;;;;;5003112;28;20053;-73
2023/01/23 10:25:15;;;;;;;14.07;6.82;;;4.30;99.90;;;;;;5005030;28;20515;-73
2023/01/23 10:27:44;;;;;;;16.70;6.03;;;4.30;99.90;;;;;;5003561;28;20045;-73
2023/01/23 10:30:12;;;;;;;15.45;7.18;;;4.40;99.90;;;;;;5003620;28;20072;-72
2023/01/23 10:33:00;;;;;;;13.77;6.40;;;4.50;99.90;;;;;;5004669;28;20030;-73
2023/01/23 10:35:49;;;;;;;20.00;7.75;;;4.50;99.90;;;;;;5019609;28;20037;-72
2023/01/23 10:38:25;;;;;;;15.88;7.10;;;4.50;99.90;;;;;;5003619;28;20034;-73
2023/01/23 10:43:36;;;;;;;15.95;7.22;;;4.60;99.90;;;;;;5008054;28;20073;-74
2023/01/23 10:46:11;;;;;;;12.98;6.40;;;4.50;99.90;;;;;;5005362;28;20057;-73
2023/01/23 10:48:41;;;;;;;13.05;6.20;;;4.60;99.90;;;;;;5011079;28;20053;-73
2023/01/23 10:51:37;;;;;;;12.65;5.85;;;4.60;99.90;;;;;;5001001;28;20567;-72
2023/01/23 10:54:18;;;;;;;14.50;7.13;;;4.60;99.90;;;;;;5008634;28;20178;-72
2023/01/23 10:56:56;;;;;;;23.45;7.15;;;4.70;99.90;;;;;;5002918;28;20057;-73
2023/01/23 11:00:02;;;;;;;18.05;6.28;;;4.60;99.90;;;;;;5006256;28;20070;-74
2023/01/23 11:02:30;;;;;;;18.70;7.65;;;4.60;99.90;;;;;;4996543;28;20058;-73
2023/01/23 11:04:57;;;;;;;13.18;6.60;;;4.60;99.90;;;;;;4998875;28;20050;-72
2023/01/23 11:07:22;;;;;;;18.17;7.07;;;4.50;99.90;;;;;;5004011;28;20112;-72
2023/01/23 11:10:08;;;;;;;14.18;6.32;;;4.50;99.90;;;;;;5008407;28;20030;-72
2023/01/23 11:12:45;;;;;;;16.70;6.28;;;4.60;99.90;;;;;;4999691;28;20038;-73
2023/01/23 11:15:27;;;;;;;15.50;6.50;;;4.50;99.90;;;;;;5015400;28;20034;-73
2023/01/23 11:17:55;;;;;;;21.40;6.65;;;4.50;99.90;;;;;;4998471;28;20038;-72
2023/01/23 11:20:23;;;;;;;15.63;6.20;;;4.50;99.90;;;;;;5001638;28;20080;-72
2023/01/23 11:23:20;;;;;;;13.77;6.22;;;4.50;99.90;;;;;;5007265;28;20128;-73
2023/01/23 11:25:48;;;;;;;13.50;6.53;;;4.50;99.90;;;;;;4998456;28;20046;-72
2023/01/23 11:28:29;;;;;;;13.68;6.32;;;4.50;99.90;;;;;;5020004;28;20058;-73
2023/01/23 11:31:09;;;;;;;11.45;6.03;;;4.60;99.90;;;;;;5002775;28;20118;-73
2023/01/23 11:33:46;;;;;;;11.95;5.53;;;4.80;99.90;;;;;;5008918;28;20037;-73
2023/01/23 11:36:17;;;;;;;15.73;6.22;;;5.00;99.90;;;;;;5002189;28;20046;-73
2023/01/23 11:39:06;;;;;;;12.05;5.63;;;5.30;99.90;;;;;;5005668;28;20041;-72
2023/01/23 11:41:34;;;;;;;13.15;5.93;;;5.60;99.90;;;;;;5001621;28;20034;-73
2023/01/23 11:44:08;;;;;;;10.93;5.70;;;5.60;99.90;;;;;;5000781;28;20091;-73
2023/01/23 11:46:45;;;;;;;10.85;6.15;;;5.40;99.90;;;;;;5008282;28;20030;-73
2023/01/23 11:49:28;;;;;;;11.45;6.07;;;5.20;99.90;;;;;;5007686;28;20060;-73
2023/01/23 11:52:00;;;;;;;17.15;6.68;;;5.00;99.90;;;;;;4999684;28;20034;-74
2023/01/23 11:55:00;;;;;;;14.18;6.05;;;4.80;99.90;;;;;;5014135;28;20411;-75
2023/01/23 11:57:39;;;;;;;14.38;6.35;;;4.70;99.90;;;;;;5003360;28;20050;-74
2023/01/23 12:00:20;;;;;;;11.48;5.13;;;4.70;99.90;;;;;;5003109;28;20042;-74
2023/01/23 12:02:56;;;;;;;10.82;5.68;;;4.60;99.90;;;;;;5004362;28;20033;-73
2023/01/23 12:05:50;;;;;;;17.70;6.07;;;4.60;99.90;;;;;;4999819;28;20453;-73
2023/01/23 12:08:43;;;;;;;13.55;6.13;;;4.60;99.90;;;;;;5003329;28;20044;-74
2023/01/23 12:11:21;;;;;;;12.13;5.60;;;4.60;99.90;;;;;;5004387;28;20037;-73
2023/01/23 12:14:16;;;;;;;8.48;4.43;;;4.60;99.90;;;;;;5002719;28;20033;-73
2023/01/23 12:16:59;;;;;;;11.13;5.30;;;4.40;99.90;;;;;;4993584;28;20030;-74
2023/01/23 12:19:43;;;;;;;11.10;5.03;;;4.40;99.90;;;;;;4998271;28;20525;-74
2023/01/23 12:22:30;;;;;;;17.20;5.75;;;4.50;99.90;;;;;;5004342;28;20044;-73
2023/01/23 12:25:26;;;;;;;11.27;5.40;;;4.50;99.90;;;;;;5000051;28;20036;-74
2023/01/23 12:28:20;;;;;;;12.95;4.95;;;4.70;99.90;;;;;;5000198;28;20052;-73
2023/01/23 12:30:54;;;;;;;10.20;4.50;;;4.60;99.90;;;;;;4984969;28;20084;-73
2023/01/23 12:33:33;;;;;;;9.40;4.63;;;4.70;99.90;;;;;;5000999;28;20043;-74
2023/01/23 12:36:17;;;;;;;9.75;4.53;;;4.70;99.90;;;;;;5002533;28;20037;-75
2023/01/23 12:38:51;;;;;;;9.27;4.57;;;4.70;99.90;;;;;;4998059;28;20426;-74
2023/01/23 12:41:39;;;;;;;9.68;4.53;;;4.70;99.90;;;;;;4999447;28;20075;-72
2023/01/23 12:44:23;;;;;;;10.50;4.25;;;4.80;99.90;;;;;;4999954;28;20551;-73
2023/01/23 12:47:01;;;;;;;14.48;5.38;;;4.80;99.90;;;;;;5004807;28;20034;-73
2023/01/23 12:49:34;;;;;;;11.15;4.88;;;4.90;99.90;;;;;;5019360;28;20058;-73
2023/01/23 12:52:13;;;;;;;16.45;5.47;;;4.90;99.90;;;;;;5006589;28;20851;-73
2023/01/23 12:54:45;;;;;;;9.55;4.80;;;5.00;99.90;;;;;;5000950;28;20022;-72
2023/01/23 12:57:11;;;;;;;10.23;5.03;;;5.10;99.90;;;;;;5001159;28;20045;-73
2023/01/23 12:59:57;;;;;;;9.55;4.93;;;5.10;99.90;;;;;;5007894;28;20041;-73
2023/01/23 13:02:36;;;;;;;11.75;5.30;;;5.20;99.90;;;;;;5007795;28;20073;-73
2023/01/23 13:05:23;;;;;;;16.55;5.03;;;5.20;99.90;;;;;;4995591;28;20138;-73
2023/01/23 13:08:04;;;;;;;11.45;5.05;;;5.20;99.90;;;;;;5000039;28;20026;-72
2023/01/23 13:13:43;;;;;;;12.02;5.13;;;5.30;99.90;;;;;;5005070;28;20462;-72